sensor_id;sensor_type;location;lat;lon;timestamp;P1;durP1;ratioP1;P2;durP2;ratioP2
22711;SDS011;11523;50.390;8.072;2023-02-03T03:34:38;2.33;;;1.20;;
22711;SDS011;11523;50.390;8.072;2023-02-03T03:37:14;4.70;;;1.73;;
22711;SDS011;11523;50.390;8.072;2023-02-03T03:44:51;1.70;;;1.10;;
22711;SDS011;11523;50.390;8.072;2023-02-03T03:50:03;2.60;;;1.50;;
22711;SDS011;11523;50.390;8.072;2023-02-03T03:52:31;2.13;;;1.30;;
22711;SDS011;11523;50.390;8.072;2023-02-03T03:54:59;2.88;;;1.40;;
22711;SDS011;11523;50.390;8.072;2023-02-03T03:57:31;2.35;;;1.50;;
22711;SDS011;11523;50.390;8.072;2023-02-03T04:00:00;3.60;;;1.30;;
22711;SDS011;11523;50.390;8.072;2023-02-03T04:02:26;2.50;;;1.30;;
22711;SDS011;11523;50.390;8.072;2023-02-03T04:04:53;3.17;;;1.90;;
22711;SDS011;11523;50.390;8.072;2023-02-03T04:07:19;2.97;;;1.58;;
22711;SDS011;11523;50.390;8.072;2023-02-03T04:09:45;2.78;;;1.42;;
22711;SDS011;11523;50.390;8.072;2023-02-03T04:12:21;1.98;;;1.30;;
22711;SDS011;11523;50.390;8.072;2023-02-03T04:14:47;4.20;;;1.38;;
22711;SDS011;11523;50.390;8.072;2023-02-03T04:17:13;2.92;;;1.60;;
22711;SDS011;11523;50.390;8.072;2023-02-03T04:19:39;3.47;;;1.85;;
22711;SDS011;11523;50.390;8.072;2023-02-03T04:22:05;3.60;;;1.75;;
22711;SDS011;11523;50.390;8.072;2023-02-03T04:24:31;4.30;;;1.58;;
22711;SDS011;11523;50.390;8.072;2023-02-03T04:26:57;1.73;;;1.50;;
22711;SDS011;11523;50.390;8.072;2023-02-03T04:29:23;3.33;;;1.58;;
22711;SDS011;11523;50.390;8.072;2023-02-03T04:31:49;2.50;;;1.60;;
22711;SDS011;11523;50.390;8.072;2023-02-03T04:34:15;3.17;;;1.60;;
22711;SDS011;11523;50.390;8.072;2023-02-03T04:36:41;2.60;;;1.40;;
22711;SDS011;11523;50.390;8.072;2023-02-03T04:39:06;3.78;;;1.67;;
22711;SDS011;11523;50.390;8.072;2023-02-03T04:41:32;2.72;;;1.45;;
22711;SDS011;11523;50.390;8.072;2023-02-03T04:43:58;4.80;;;1.52;;
22711;SDS011;11523;50.390;8.072;2023-02-03T04:46:24;3.63;;;1.75;;
22711;SDS011;11523;50.390;8.072;2023-02-03T04:48:50;2.63;;;1.52;;
22711;SDS011;11523;50.390;8.072;2023-02-03T04:51:16;2.17;;;1.55;;
22711;SDS011;11523;50.390;8.072;2023-02-03T04:53:42;3.13;;;1.85;;
22711;SDS011;11523;50.390;8.072;2023-02-03T04:56:08;4.97;;;1.90;;
22711;SDS011;11523;50.390;8.072;2023-02-03T04:58:35;2.97;;;1.20;;
22711;SDS011;11523;50.390;8.072;2023-02-03T05:01:04;2.40;;;1.60;;
22711;SDS011;11523;50.390;8.072;2023-02-03T05:03:31;2.38;;;1.80;;
22711;SDS011;11523;50.390;8.072;2023-02-03T05:05:57;2.42;;;1.30;;
22711;SDS011;11523;50.390;8.072;2023-02-03T05:08:23;1.90;;;1.40;;
22711;SDS011;11523;50.390;8.072;2023-02-03T05:10:49;3.60;;;1.60;;
22711;SDS011;11523;50.390;8.072;2023-02-03T05:13:15;3.78;;;1.20;;
22711;SDS011;11523;50.390;8.072;2023-02-03T05:15:41;2.05;;;1.45;;
22711;SDS011;11523;50.390;8.072;2023-02-03T05:18:07;3.58;;;1.67;;
22711;SDS011;11523;50.390;8.072;2023-02-03T05:20:33;3.55;;;1.73;;
22711;SDS011;11523;50.390;8.072;2023-02-03T05:22:59;3.60;;;1.70;;
22711;SDS011;11523;50.390;8.072;2023-02-03T05:25:25;5.97;;;1.60;;
22711;SDS011;11523;50.390;8.072;2023-02-03T05:27:51;4.40;;;1.50;;
22711;SDS011;11523;50.390;8.072;2023-02-03T05:30:17;4.20;;;1.30;;
22711;SDS011;11523;50.390;8.072;2023-02-03T05:32:43;1.85;;;1.33;;
22711;SDS011;11523;50.390;8.072;2023-02-03T05:35:09;2.85;;;1.42;;
22711;SDS011;11523;50.390;8.072;2023-02-03T05:37:35;4.15;;;1.20;;
22711;SDS011;11523;50.390;8.072;2023-02-03T05:40:01;1.45;;;0.88;;
22711;SDS011;11523;50.390;8.072;2023-02-03T05:42:49;1.52;;;1.02;;
22711;SDS011;11523;50.390;8.072;2023-02-03T05:45:15;1.92;;;1.02;;
22711;SDS011;11523;50.390;8.072;2023-02-03T05:47:41;4.15;;;1.27;;
22711;SDS011;11523;50.390;8.072;2023-02-03T05:50:07;2.00;;;1.42;;
22711;SDS011;11523;50.390;8.072;2023-02-03T05:52:33;3.38;;;1.75;;
22711;SDS011;11523;50.390;8.072;2023-02-03T05:54:59;4.13;;;1.60;;
22711;SDS011;11523;50.390;8.072;2023-02-03T05:57:24;4.72;;;1.05;;
22711;SDS011;11523;50.390;8.072;2023-02-03T05:59:50;5.65;;;1.58;;
22711;SDS011;11523;50.390;8.072;2023-02-03T06:02:16;2.72;;;1.20;;
22711;SDS011;11523;50.390;8.072;2023-02-03T06:04:42;2.53;;;1.40;;
22711;SDS011;11523;50.390;8.072;2023-02-03T06:07:08;2.95;;;1.45;;
22711;SDS011;11523;50.390;8.072;2023-02-03T06:09:34;3.03;;;1.25;;
22711;SDS011;11523;50.390;8.072;2023-02-03T06:12:00;2.42;;;1.40;;
22711;SDS011;11523;50.390;8.072;2023-02-03T06:14:26;3.97;;;1.25;;
22711;SDS011;11523;50.390;8.072;2023-02-03T06:16:52;2.22;;;1.00;;
22711;SDS011;11523;50.390;8.072;2023-02-03T06:19:18;4.93;;;1.55;;
22711;SDS011;11523;50.390;8.072;2023-02-03T06:21:44;1.48;;;1.20;;
22711;SDS011;11523;50.390;8.072;2023-02-03T06:24:10;4.53;;;1.48;;
22711;SDS011;11523;50.390;8.072;2023-02-03T06:26:36;1.73;;;1.08;;
22711;SDS011;11523;50.390;8.072;2023-02-03T06:29:01;4.28;;;1.33;;
22711;SDS011;11523;50.390;8.072;2023-02-03T06:31:27;3.20;;;1.60;;
22711;SDS011;11523;50.390;8.072;2023-02-03T06:33:53;4.65;;;1.50;;
22711;SDS011;11523;50.390;8.072;2023-02-03T06:36:21;2.55;;;1.50;;
22711;SDS011;11523;50.390;8.072;2023-02-03T06:38:47;2.42;;;1.20;;
22711;SDS011;11523;50.390;8.072;2023-02-03T06:41:13;3.38;;;1.50;;
22711;SDS011;11523;50.390;8.072;2023-02-03T06:43:39;2.08;;;1.17;;
22711;SDS011;11523;50.390;8.072;2023-02-03T06:46:05;5.22;;;1.52;;
22711;SDS011;11523;50.390;8.072;2023-02-03T06:48:31;2.25;;;1.08;;
22711;SDS011;11523;50.390;8.072;2023-02-03T06:51:05;4.13;;;1.77;;
22711;SDS011;11523;50.390;8.072;2023-02-03T06:53:31;4.05;;;1.77;;
22711;SDS011;11523;50.390;8.072;2023-02-03T06:55:57;4.55;;;1.40;;
22711;SDS011;11523;50.390;8.072;2023-02-03T06:58:26;4.00;;;1.48;;
22711;SDS011;11523;50.390;8.072;2023-02-03T07:00:54;3.58;;;1.52;;
22711;SDS011;11523;50.390;8.072;2023-02-03T07:03:20;3.13;;;0.90;;
22711;SDS011;11523;50.390;8.072;2023-02-03T07:05:46;2.47;;;1.23;;
22711;SDS011;11523;50.390;8.072;2023-02-03T07:08:12;2.60;;;1.40;;
22711;SDS011;11523;50.390;8.072;2023-02-03T07:10:38;2.17;;;1.20;;
22711;SDS011;11523;50.390;8.072;2023-02-03T07:13:07;4.72;;;1.60;;
22711;SDS011;11523;50.390;8.072;2023-02-03T07:15:33;2.40;;;1.13;;
22711;SDS011;11523;50.390;8.072;2023-02-03T07:17:59;3.75;;;1.73;;
22711;SDS011;11523;50.390;8.072;2023-02-03T07:20:25;4.43;;;1.30;;
22711;SDS011;11523;50.390;8.072;2023-02-03T07:22:53;4.65;;;1.40;;
22711;SDS011;11523;50.390;8.072;2023-02-03T07:25:19;2.30;;;1.27;;
22711;SDS011;11523;50.390;8.072;2023-02-03T07:27:45;2.05;;;1.00;;
22711;SDS011;11523;50.390;8.072;2023-02-03T07:30:11;3.67;;;1.73;;
22711;SDS011;11523;50.390;8.072;2023-02-03T07:32:37;3.30;;;1.40;;
22711;SDS011;11523;50.390;8.072;2023-02-03T07:35:03;3.65;;;1.25;;
22711;SDS011;11523;50.390;8.072;2023-02-03T07:37:35;2.58;;;1.20;;
22711;SDS011;11523;50.390;8.072;2023-02-03T07:40:01;2.92;;;1.30;;
22711;SDS011;11523;50.390;8.072;2023-02-03T07:42:27;3.30;;;1.70;;
22711;SDS011;11523;50.390;8.072;2023-02-03T07:44:53;3.30;;;1.50;;
22711;SDS011;11523;50.390;8.072;2023-02-03T07:47:19;3.45;;;1.70;;
22711;SDS011;11523;50.390;8.072;2023-02-03T07:49:45;4.35;;;1.70;;
22711;SDS011;11523;50.390;8.072;2023-02-03T07:52:11;2.95;;;1.42;;
22711;SDS011;11523;50.390;8.072;2023-02-03T07:54:37;2.33;;;1.20;;
22711;SDS011;11523;50.390;8.072;2023-02-03T07:57:03;4.25;;;1.20;;
22711;SDS011;11523;50.390;8.072;2023-02-03T07:59:29;4.18;;;1.50;;
22711;SDS011;11523;50.390;8.072;2023-02-03T08:01:55;2.63;;;1.23;;
22711;SDS011;11523;50.390;8.072;2023-02-03T08:04:21;5.75;;;1.98;;
22711;SDS011;11523;50.390;8.072;2023-02-03T08:06:48;6.43;;;1.42;;
22711;SDS011;11523;50.390;8.072;2023-02-03T08:09:14;7.03;;;2.03;;
22711;SDS011;11523;50.390;8.072;2023-02-03T08:11:40;3.13;;;1.30;;
22711;SDS011;11523;50.390;8.072;2023-02-03T08:14:06;4.47;;;1.60;;
22711;SDS011;11523;50.390;8.072;2023-02-03T08:16:32;4.22;;;1.75;;
22711;SDS011;11523;50.390;8.072;2023-02-03T08:18:58;8.10;;;1.33;;
22711;SDS011;11523;50.390;8.072;2023-02-03T08:21:24;1.73;;;1.20;;
22711;SDS011;11523;50.390;8.072;2023-02-03T08:23:49;4.07;;;1.33;;
22711;SDS011;11523;50.390;8.072;2023-02-03T08:26:15;5.45;;;1.60;;
22711;SDS011;11523;50.390;8.072;2023-02-03T08:28:41;3.20;;;1.38;;
22711;SDS011;11523;50.390;8.072;2023-02-03T08:31:08;4.10;;;1.40;;
22711;SDS011;11523;50.390;8.072;2023-02-03T08:33:34;5.60;;;1.90;;
22711;SDS011;11523;50.390;8.072;2023-02-03T08:36:00;2.97;;;1.23;;
22711;SDS011;11523;50.390;8.072;2023-02-03T08:38:33;2.40;;;1.38;;
22711;SDS011;11523;50.390;8.072;2023-02-03T08:40:59;4.57;;;1.50;;
22711;SDS011;11523;50.390;8.072;2023-02-03T08:43:24;3.25;;;1.45;;
22711;SDS011;11523;50.390;8.072;2023-02-03T08:45:50;4.68;;;1.40;;
22711;SDS011;11523;50.390;8.072;2023-02-03T08:48:16;4.72;;;1.40;;
22711;SDS011;11523;50.390;8.072;2023-02-03T08:50:42;2.33;;;1.38;;
22711;SDS011;11523;50.390;8.072;2023-02-03T08:53:15;4.68;;;1.50;;
22711;SDS011;11523;50.390;8.072;2023-02-03T08:55:41;4.80;;;1.40;;
22711;SDS011;11523;50.390;8.072;2023-02-03T08:58:07;3.03;;;1.30;;
22711;SDS011;11523;50.390;8.072;2023-02-03T09:00:33;4.43;;;1.35;;
22711;SDS011;11523;50.390;8.072;2023-02-03T09:02:59;2.78;;;1.10;;
22711;SDS011;11523;50.390;8.072;2023-02-03T09:05:25;1.75;;;0.90;;
22711;SDS011;11523;50.390;8.072;2023-02-03T09:07:51;3.50;;;1.35;;
22711;SDS011;11523;50.390;8.072;2023-02-03T09:10:17;3.13;;;1.10;;
22711;SDS011;11523;50.390;8.072;2023-02-03T09:12:43;1.63;;;1.17;;
22711;SDS011;11523;50.390;8.072;2023-02-03T09:15:09;3.05;;;1.42;;
22711;SDS011;11523;50.390;8.072;2023-02-03T09:17:35;2.97;;;1.25;;
22711;SDS011;11523;50.390;8.072;2023-02-03T09:20:00;4.35;;;1.20;;
22711;SDS011;11523;50.390;8.072;2023-02-03T09:22:26;2.67;;;1.30;;
22711;SDS011;11523;50.390;8.072;2023-02-03T09:24:52;3.35;;;1.30;;
22711;SDS011;11523;50.390;8.072;2023-02-03T09:27:18;2.15;;;1.00;;
22711;SDS011;11523;50.390;8.072;2023-02-03T09:29:44;3.20;;;1.00;;
22711;SDS011;11523;50.390;8.072;2023-02-03T09:32:10;1.98;;;1.10;;
22711;SDS011;11523;50.390;8.072;2023-02-03T09:34:36;2.72;;;1.20;;
22711;SDS011;11523;50.390;8.072;2023-02-03T09:37:03;2.15;;;1.10;;
22711;SDS011;11523;50.390;8.072;2023-02-03T09:39:29;2.72;;;1.20;;
22711;SDS011;11523;50.390;8.072;2023-02-03T09:42:00;4.28;;;1.17;;
22711;SDS011;11523;50.390;8.072;2023-02-03T09:47:11;3.17;;;1.30;;
22711;SDS011;11523;50.390;8.072;2023-02-03T09:49:44;2.92;;;1.20;;
22711;SDS011;11523;50.390;8.072;2023-02-03T09:52:13;3.78;;;1.33;;
22711;SDS011;11523;50.390;8.072;2023-02-03T09:57:12;1.27;;;0.90;;
22711;SDS011;11523;50.390;8.072;2023-02-03T09:59:38;3.67;;;1.50;;
22711;SDS011;11523;50.390;8.072;2023-02-03T10:05:00;3.17;;;1.10;;
22711;SDS011;11523;50.390;8.072;2023-02-03T10:07:38;2.40;;;1.15;;
22711;SDS011;11523;50.390;8.072;2023-02-03T10:10:17;2.90;;;1.30;;
22711;SDS011;11523;50.390;8.072;2023-02-03T10:12:55;3.03;;;1.48;;
22711;SDS011;11523;50.390;8.072;2023-02-03T10:15:34;4.13;;;1.30;;
22711;SDS011;11523;50.390;8.072;2023-02-03T10:18:05;3.17;;;1.50;;
22711;SDS011;11523;50.390;8.072;2023-02-03T10:20:41;4.32;;;1.45;;
22711;SDS011;11523;50.390;8.072;2023-02-03T10:23:12;7.25;;;1.50;;
22711;SDS011;11523;50.390;8.072;2023-02-03T10:25:39;2.00;;;1.10;;
22711;SDS011;11523;50.390;8.072;2023-02-03T10:28:19;3.88;;;1.30;;
22711;SDS011;11523;50.390;8.072;2023-02-03T10:30:47;5.43;;;1.50;;
22711;SDS011;11523;50.390;8.072;2023-02-03T10:33:14;8.70;;;1.73;;
22711;SDS011;11523;50.390;8.072;2023-02-03T10:35:48;4.00;;;1.75;;
22711;SDS011;11523;50.390;8.072;2023-02-03T10:38:18;3.05;;;1.45;;
22711;SDS011;11523;50.390;8.072;2023-02-03T10:40:46;7.50;;;1.30;;
22711;SDS011;11523;50.390;8.072;2023-02-03T10:43:12;4.10;;;1.42;;
22711;SDS011;11523;50.390;8.072;2023-02-03T10:45:57;2.30;;;1.40;;
22711;SDS011;11523;50.390;8.072;2023-02-03T10:48:23;4.78;;;2.10;;
22711;SDS011;11523;50.390;8.072;2023-02-03T10:50:49;2.78;;;1.60;;
22711;SDS011;11523;50.390;8.072;2023-02-03T10:55:42;3.10;;;1.38;;
22711;SDS011;11523;50.390;8.072;2023-02-03T10:58:12;6.05;;;1.65;;
22711;SDS011;11523;50.390;8.072;2023-02-03T11:00:39;4.30;;;1.60;;
22711;SDS011;11523;50.390;8.072;2023-02-03T11:03:19;6.10;;;1.70;;
22711;SDS011;11523;50.390;8.072;2023-02-03T11:06:01;3.45;;;1.20;;
22711;SDS011;11523;50.390;8.072;2023-02-03T11:08:29;4.10;;;1.95;;
22711;SDS011;11523;50.390;8.072;2023-02-03T11:11:00;2.63;;;1.73;;
22711;SDS011;11523;50.390;8.072;2023-02-03T11:13:26;4.03;;;1.40;;
22711;SDS011;11523;50.390;8.072;2023-02-03T11:18:39;4.20;;;1.60;;
22711;SDS011;11523;50.390;8.072;2023-02-03T11:21:27;4.68;;;2.20;;
22711;SDS011;11523;50.390;8.072;2023-02-03T11:23:56;3.63;;;1.63;;
22711;SDS011;11523;50.390;8.072;2023-02-03T11:26:26;4.88;;;1.40;;
22711;SDS011;11523;50.390;8.072;2023-02-03T11:28:55;4.35;;;1.80;;
22711;SDS011;11523;50.390;8.072;2023-02-03T11:31:25;2.60;;;1.40;;
22711;SDS011;11523;50.390;8.072;2023-02-03T11:33:56;3.40;;;1.42;;
22711;SDS011;11523;50.390;8.072;2023-02-03T11:36:24;4.05;;;1.75;;
22711;SDS011;11523;50.390;8.072;2023-02-03T11:38:50;4.25;;;1.45;;
22711;SDS011;11523;50.390;8.072;2023-02-03T11:41:17;3.95;;;1.50;;
22711;SDS011;11523;50.390;8.072;2023-02-03T11:43:44;2.80;;;1.45;;
22711;SDS011;11523;50.390;8.072;2023-02-03T11:46:10;2.63;;;1.30;;
22711;SDS011;11523;50.390;8.072;2023-02-03T11:48:38;2.90;;;1.48;;
22711;SDS011;11523;50.390;8.072;2023-02-03T11:59:21;6.35;;;1.63;;
22711;SDS011;11523;50.390;8.072;2023-02-03T12:17:30;1.70;;;1.05;;
22711;SDS011;11523;50.390;8.072;2023-02-03T12:22:51;3.63;;;1.40;;
22711;SDS011;11523;50.390;8.072;2023-02-03T12:25:34;3.60;;;1.65;;
22711;SDS011;11523;50.390;8.072;2023-02-03T12:28:12;1.67;;;1.30;;
22711;SDS011;11523;50.390;8.072;2023-02-03T12:30:42;2.45;;;1.40;;
22711;SDS011;11523;50.390;8.072;2023-02-03T12:33:16;2.58;;;1.50;;
22711;SDS011;11523;50.390;8.072;2023-02-03T12:40:51;3.22;;;1.20;;
22711;SDS011;11523;50.390;8.072;2023-02-03T12:45:53;3.10;;;1.85;;
22711;SDS011;11523;50.390;8.072;2023-02-03T12:48:21;2.63;;;1.17;;
22711;SDS011;11523;50.390;8.072;2023-02-03T12:50:48;4.35;;;1.42;;
22711;SDS011;11523;50.390;8.072;2023-02-03T12:53:31;4.22;;;1.58;;
22711;SDS011;11523;50.390;8.072;2023-02-03T12:56:01;2.03;;;1.15;;
22711;SDS011;11523;50.390;8.072;2023-02-03T12:58:35;2.58;;;1.40;;
22711;SDS011;11523;50.390;8.072;2023-02-03T13:01:04;2.38;;;1.50;;
22711;SDS011;11523;50.390;8.072;2023-02-03T13:03:41;2.47;;;1.55;;
22711;SDS011;11523;50.390;8.072;2023-02-03T13:08:40;2.35;;;2.15;;
22711;SDS011;11523;50.390;8.072;2023-02-03T13:11:28;4.72;;;1.90;;
22711;SDS011;11523;50.390;8.072;2023-02-03T13:14:04;2.67;;;1.50;;
22711;SDS011;11523;50.390;8.072;2023-02-03T13:16:35;2.65;;;1.65;;
22711;SDS011;11523;50.390;8.072;2023-02-03T13:19:04;2.30;;;1.60;;
22711;SDS011;11523;50.390;8.072;2023-02-03T13:21:31;2.10;;;1.48;;
22711;SDS011;11523;50.390;8.072;2023-02-03T13:23:57;2.33;;;1.58;;
22711;SDS011;11523;50.390;8.072;2023-02-03T13:31:46;2.45;;;1.95;;
22711;SDS011;11523;50.390;8.072;2023-02-03T13:34:17;2.00;;;1.45;;
22711;SDS011;11523;50.390;8.072;2023-02-03T13:39:39;3.15;;;1.70;;
22711;SDS011;11523;50.390;8.072;2023-02-03T13:44:32;4.68;;;1.77;;
22711;SDS011;11523;50.390;8.072;2023-02-03T13:46:58;3.40;;;1.92;;
22711;SDS011;11523;50.390;8.072;2023-02-03T13:49:26;3.33;;;2.00;;
22711;SDS011;11523;50.390;8.072;2023-02-03T13:51:53;3.25;;;2.10;;
22711;SDS011;11523;50.390;8.072;2023-02-03T13:56:58;2.60;;;2.33;;
22711;SDS011;11523;50.390;8.072;2023-02-03T14:15:16;4.70;;;4.00;;
22711;SDS011;11523;50.390;8.072;2023-02-03T14:20:31;6.50;;;3.85;;
22711;SDS011;11523;50.390;8.072;2023-02-03T14:22:59;5.32;;;4.28;;
22711;SDS011;11523;50.390;8.072;2023-02-03T14:26:04;6.15;;;4.57;;
22711;SDS011;11523;50.390;8.072;2023-02-03T14:28:36;7.30;;;4.65;;
22711;SDS011;11523;50.390;8.072;2023-02-03T14:31:11;5.28;;;3.53;;
22711;SDS011;11523;50.390;8.072;2023-02-03T14:36:27;6.47;;;4.80;;
22711;SDS011;11523;50.390;8.072;2023-02-03T14:38:54;6.90;;;4.80;;
22711;SDS011;11523;50.390;8.072;2023-02-03T14:41:23;5.55;;;3.00;;
22711;SDS011;11523;50.390;8.072;2023-02-03T14:44:11;5.78;;;4.32;;
22711;SDS011;11523;50.390;8.072;2023-02-03T14:46:42;5.65;;;3.65;;
22711;SDS011;11523;50.390;8.072;2023-02-03T14:49:18;7.25;;;4.47;;
22711;SDS011;11523;50.390;8.072;2023-02-03T14:51:50;4.95;;;4.45;;
22711;SDS011;11523;50.390;8.072;2023-02-03T14:54:26;8.27;;;4.60;;
22711;SDS011;11523;50.390;8.072;2023-02-03T14:57:11;7.65;;;4.68;;
22711;SDS011;11523;50.390;8.072;2023-02-03T15:02:13;6.70;;;4.47;;
22711;SDS011;11523;50.390;8.072;2023-02-03T15:04:40;4.30;;;3.90;;
22711;SDS011;11523;50.390;8.072;2023-02-03T15:07:07;5.20;;;4.50;;
22711;SDS011;11523;50.390;8.072;2023-02-03T15:09:43;6.57;;;3.20;;
22711;SDS011;11523;50.390;8.072;2023-02-03T15:12:23;5.25;;;3.05;;
22711;SDS011;11523;50.390;8.072;2023-02-03T15:14:50;5.45;;;3.67;;
22711;SDS011;11523;50.390;8.072;2023-02-03T15:19:45;5.95;;;4.45;;
22711;SDS011;11523;50.390;8.072;2023-02-03T15:24:46;4.75;;;4.28;;
22711;SDS011;11523;50.390;8.072;2023-02-03T15:27:19;6.40;;;4.43;;
22711;SDS011;11523;50.390;8.072;2023-02-03T15:29:46;4.37;;;2.83;;
22711;SDS011;11523;50.390;8.072;2023-02-03T15:32:14;10.50;;;4.10;;
22711;SDS011;11523;50.390;8.072;2023-02-03T15:34:43;5.03;;;3.95;;
22711;SDS011;11523;50.390;8.072;2023-02-03T15:37:15;8.48;;;4.32;;
22711;SDS011;11523;50.390;8.072;2023-02-03T15:39:54;4.80;;;3.92;;
22711;SDS011;11523;50.390;8.072;2023-02-03T15:42:27;7.47;;;4.30;;
22711;SDS011;11523;50.390;8.072;2023-02-03T15:44:56;8.48;;;5.03;;
22711;SDS011;11523;50.390;8.072;2023-02-03T15:47:33;5.30;;;4.32;;
22711;SDS011;11523;50.390;8.072;2023-02-03T15:50:02;6.18;;;5.15;;
22711;SDS011;11523;50.390;8.072;2023-02-03T15:52:30;7.90;;;5.43;;
22711;SDS011;11523;50.390;8.072;2023-02-03T15:55:02;6.68;;;5.20;;
22711;SDS011;11523;50.390;8.072;2023-02-03T15:57:31;9.02;;;5.78;;
22711;SDS011;11523;50.390;8.072;2023-02-03T16:00:07;9.75;;;5.20;;
22711;SDS011;11523;50.390;8.072;2023-02-03T16:02:35;6.55;;;5.03;;
22711;SDS011;11523;50.390;8.072;2023-02-03T16:05:05;6.28;;;5.50;;
22711;SDS011;11523;50.390;8.072;2023-02-03T16:07:37;5.47;;;4.93;;
22711;SDS011;11523;50.390;8.072;2023-02-03T16:10:03;6.53;;;5.47;;
22711;SDS011;11523;50.390;8.072;2023-02-03T16:12:30;5.95;;;4.38;;
22711;SDS011;11523;50.390;8.072;2023-02-03T16:14:56;6.30;;;5.25;;
22711;SDS011;11523;50.390;8.072;2023-02-03T16:22:37;5.15;;;4.55;;
22711;SDS011;11523;50.390;8.072;2023-02-03T16:27:44;4.22;;;3.25;;
22711;SDS011;11523;50.390;8.072;2023-02-03T16:35:40;9.10;;;5.80;;
22711;SDS011;11523;50.390;8.072;2023-02-03T16:38:24;7.57;;;5.10;;
22711;SDS011;11523;50.390;8.072;2023-02-03T16:41:11;7.97;;;4.28;;
22711;SDS011;11523;50.390;8.072;2023-02-03T16:43:58;7.85;;;5.43;;
22711;SDS011;11523;50.390;8.072;2023-02-03T16:46:43;9.02;;;5.72;;
22711;SDS011;11523;50.390;8.072;2023-02-03T16:49:28;11.77;;;5.68;;
22711;SDS011;11523;50.390;8.072;2023-02-03T16:52:13;7.95;;;5.78;;
22711;SDS011;11523;50.390;8.072;2023-02-03T16:54:38;6.85;;;5.82;;
22711;SDS011;11523;50.390;8.072;2023-02-03T16:57:04;9.40;;;6.10;;
22711;SDS011;11523;50.390;8.072;2023-02-03T16:59:30;9.85;;;6.15;;
22711;SDS011;11523;50.390;8.072;2023-02-03T17:01:56;8.35;;;5.22;;
22711;SDS011;11523;50.390;8.072;2023-02-03T17:04:22;9.00;;;5.90;;
22711;SDS011;11523;50.390;8.072;2023-02-03T17:06:48;8.80;;;6.55;;
22711;SDS011;11523;50.390;8.072;2023-02-03T17:09:15;9.90;;;6.57;;
22711;SDS011;11523;50.390;8.072;2023-02-03T17:11:46;11.88;;;6.70;;
22711;SDS011;11523;50.390;8.072;2023-02-03T17:14:11;16.88;;;8.18;;
22711;SDS011;11523;50.390;8.072;2023-02-03T17:16:37;14.40;;;8.13;;
22711;SDS011;11523;50.390;8.072;2023-02-03T17:19:03;14.13;;;8.32;;
22711;SDS011;11523;50.390;8.072;2023-02-03T17:21:29;12.07;;;7.80;;
22711;SDS011;11523;50.390;8.072;2023-02-03T17:23:56;13.60;;;8.73;;
22711;SDS011;11523;50.390;8.072;2023-02-03T17:26:23;11.60;;;8.00;;
22711;SDS011;11523;50.390;8.072;2023-02-03T17:28:48;9.95;;;6.80;;
22711;SDS011;11523;50.390;8.072;2023-02-03T17:31:16;12.52;;;6.72;;
22711;SDS011;11523;50.390;8.072;2023-02-03T17:33:42;9.80;;;5.05;;
22711;SDS011;11523;50.390;8.072;2023-02-03T17:36:10;11.23;;;5.40;;
22711;SDS011;11523;50.390;8.072;2023-02-03T17:38:37;11.90;;;5.40;;
22711;SDS011;11523;50.390;8.072;2023-02-03T17:41:07;7.70;;;3.13;;
22711;SDS011;11523;50.390;8.072;2023-02-03T17:43:34;13.45;;;5.30;;
22711;SDS011;11523;50.390;8.072;2023-02-03T17:45:59;17.40;;;5.90;;
22711;SDS011;11523;50.390;8.072;2023-02-03T17:48:25;20.13;;;4.95;;
22711;SDS011;11523;50.390;8.072;2023-02-03T17:50:51;19.02;;;4.38;;
22711;SDS011;11523;50.390;8.072;2023-02-03T17:53:17;17.67;;;5.13;;
22711;SDS011;11523;50.390;8.072;2023-02-03T17:55:43;15.95;;;5.20;;
22711;SDS011;11523;50.390;8.072;2023-02-03T17:58:09;16.20;;;4.53;;
22711;SDS011;11523;50.390;8.072;2023-02-03T18:00:35;5.47;;;2.08;;
22711;SDS011;11523;50.390;8.072;2023-02-03T18:03:01;21.25;;;5.35;;
22711;SDS011;11523;50.390;8.072;2023-02-03T18:05:27;17.05;;;4.85;;
22711;SDS011;11523;50.390;8.072;2023-02-03T18:07:54;14.07;;;4.10;;
22711;SDS011;11523;50.390;8.072;2023-02-03T18:10:20;21.95;;;5.65;;
22711;SDS011;11523;50.390;8.072;2023-02-03T18:12:46;9.80;;;3.42;;
22711;SDS011;11523;50.390;8.072;2023-02-03T18:15:12;15.18;;;4.10;;
22711;SDS011;11523;50.390;8.072;2023-02-03T18:17:38;17.05;;;4.95;;
22711;SDS011;11523;50.390;8.072;2023-02-03T18:20:04;21.95;;;5.50;;
22711;SDS011;11523;50.390;8.072;2023-02-03T18:22:30;15.48;;;4.72;;
22711;SDS011;11523;50.390;8.072;2023-02-03T18:24:56;21.73;;;5.15;;
22711;SDS011;11523;50.390;8.072;2023-02-03T18:27:22;20.65;;;5.50;;
22711;SDS011;11523;50.390;8.072;2023-02-03T18:29:48;20.58;;;4.82;;
22711;SDS011;11523;50.390;8.072;2023-02-03T18:32:14;10.82;;;3.80;;
22711;SDS011;11523;50.390;8.072;2023-02-03T18:34:40;18.95;;;4.85;;
22711;SDS011;11523;50.390;8.072;2023-02-03T18:37:12;20.10;;;5.18;;
22711;SDS011;11523;50.390;8.072;2023-02-03T18:39:38;14.93;;;4.55;;
22711;SDS011;11523;50.390;8.072;2023-02-03T18:42:04;22.33;;;5.10;;
22711;SDS011;11523;50.390;8.072;2023-02-03T18:44:31;18.05;;;4.53;;
22711;SDS011;11523;50.390;8.072;2023-02-03T18:46:57;15.63;;;4.00;;
22711;SDS011;11523;50.390;8.072;2023-02-03T18:49:30;16.77;;;5.70;;
22711;SDS011;11523;50.390;8.072;2023-02-03T18:51:56;15.82;;;4.70;;
22711;SDS011;11523;50.390;8.072;2023-02-03T18:54:22;16.70;;;5.65;;
22711;SDS011;11523;50.390;8.072;2023-02-03T18:56:48;14.60;;;5.75;;
22711;SDS011;11523;50.390;8.072;2023-02-03T18:59:14;19.08;;;5.00;;
22711;SDS011;11523;50.390;8.072;2023-02-03T19:01:40;12.80;;;4.80;;
22711;SDS011;11523;50.390;8.072;2023-02-03T19:04:10;15.45;;;4.70;;
22711;SDS011;11523;50.390;8.072;2023-02-03T19:06:36;17.35;;;4.90;;
22711;SDS011;11523;50.390;8.072;2023-02-03T19:09:09;17.45;;;5.97;;
22711;SDS011;11523;50.390;8.072;2023-02-03T19:11:35;14.00;;;4.25;;
22711;SDS011;11523;50.390;8.072;2023-02-03T19:14:01;16.35;;;5.03;;
22711;SDS011;11523;50.390;8.072;2023-02-03T19:16:27;11.93;;;4.13;;
22711;SDS011;11523;50.390;8.072;2023-02-03T19:18:52;14.48;;;4.68;;
22711;SDS011;11523;50.390;8.072;2023-02-03T19:21:19;17.92;;;5.30;;
22711;SDS011;11523;50.390;8.072;2023-02-03T19:23:45;18.90;;;5.18;;
22711;SDS011;11523;50.390;8.072;2023-02-03T19:26:11;17.75;;;4.32;;
22711;SDS011;11523;50.390;8.072;2023-02-03T19:28:37;15.05;;;4.63;;
22711;SDS011;11523;50.390;8.072;2023-02-03T19:31:04;14.15;;;5.43;;
22711;SDS011;11523;50.390;8.072;2023-02-03T19:33:30;20.85;;;5.85;;
22711;SDS011;11523;50.390;8.072;2023-02-03T19:35:56;18.17;;;5.60;;
22711;SDS011;11523;50.390;8.072;2023-02-03T19:38:22;14.25;;;4.53;;
22711;SDS011;11523;50.390;8.072;2023-02-03T19:40:55;16.88;;;4.78;;
22711;SDS011;11523;50.390;8.072;2023-02-03T19:43:21;14.75;;;5.55;;
22711;SDS011;11523;50.390;8.072;2023-02-03T19:45:48;18.63;;;5.40;;
22711;SDS011;11523;50.390;8.072;2023-02-03T19:48:14;21.45;;;5.97;;
22711;SDS011;11523;50.390;8.072;2023-02-03T19:50:40;27.13;;;7.05;;
22711;SDS011;11523;50.390;8.072;2023-02-03T19:53:09;19.73;;;6.78;;
22711;SDS011;11523;50.390;8.072;2023-02-03T19:55:35;22.05;;;6.90;;
22711;SDS011;11523;50.390;8.072;2023-02-03T19:58:01;26.10;;;6.78;;
22711;SDS011;11523;50.390;8.072;2023-02-03T20:00:27;20.27;;;5.00;;
22711;SDS011;11523;50.390;8.072;2023-02-03T20:02:53;19.65;;;5.32;;
22711;SDS011;11523;50.390;8.072;2023-02-03T20:05:19;21.48;;;5.57;;
22711;SDS011;11523;50.390;8.072;2023-02-03T20:07:45;21.17;;;5.88;;
22711;SDS011;11523;50.390;8.072;2023-02-03T20:10:12;19.50;;;5.65;;
22711;SDS011;11523;50.390;8.072;2023-02-03T20:12:38;14.38;;;4.72;;
22711;SDS011;11523;50.390;8.072;2023-02-03T20:15:04;17.83;;;5.45;;
22711;SDS011;11523;50.390;8.072;2023-02-03T20:17:30;15.60;;;4.32;;
22711;SDS011;11523;50.390;8.072;2023-02-03T20:19:56;18.58;;;5.53;;